createdAt,value
2019-05-03T00:02:27.048Z,7.62
2019-05-03T00:04:58.666Z,7.15
2019-05-03T00:07:27.913Z,6.95
2019-05-03T00:09:57.066Z,6.37
2019-05-03T00:12:26.232Z,7.60
2019-05-03T00:15:02.851Z,7.25
2019-05-03T00:17:32.501Z,7.17
2019-05-03T00:20:02.322Z,5.78
2019-05-03T00:22:32.386Z,7.25
2019-05-03T00:25:06.037Z,5.05
2019-05-03T00:27:32.714Z,6.55
2019-05-03T00:30:02.824Z,7.37
2019-05-03T00:32:33.418Z,6.00
2019-05-03T00:35:11.926Z,5.90
2019-05-03T00:37:45.472Z,6.20
2019-05-03T00:40:16.313Z,6.58
2019-05-03T00:42:45.628Z,7.62
2019-05-03T00:45:14.810Z,5.67
2019-05-03T00:47:44.043Z,7.72
2019-05-03T00:50:13.188Z,7.28
2019-05-03T00:52:42.432Z,7.47
2019-05-03T00:55:16.893Z,6.58
2019-05-03T00:57:43.579Z,6.35
2019-05-03T01:00:12.760Z,6.22
2019-05-03T01:02:42.362Z,5.92
2019-05-03T01:05:12.041Z,6.67
2019-05-03T01:07:42.403Z,6.40
2019-05-03T01:10:12.503Z,4.67
2019-05-03T01:12:41.732Z,5.62
2019-05-03T01:15:32.270Z,6.20
2019-05-03T01:18:03.167Z,6.45
2019-05-03T01:20:32.307Z,7.62
2019-05-03T01:23:02.090Z,6.72
2019-05-03T01:25:35.125Z,6.33
2019-05-03T01:28:02.320Z,5.42
2019-05-03T01:30:32.088Z,6.05
2019-05-03T01:33:02.791Z,6.28
2019-05-03T01:35:32.384Z,4.97
2019-05-03T01:38:02.561Z,6.53
2019-05-03T01:40:32.581Z,6.12
2019-05-03T01:43:02.353Z,5.28
2019-05-03T01:45:31.937Z,6.10
2019-05-03T01:48:03.572Z,7.15
2019-05-03T01:50:40.195Z,5.40
2019-05-03T01:53:27.566Z,6.53
2019-05-03T01:55:56.755Z,6.28
2019-05-03T01:58:26.008Z,5.47
2019-05-03T02:01:15.068Z,5.40
2019-05-03T02:03:48.447Z,5.37
2019-05-03T02:06:17.689Z,7.35
2019-05-03T02:08:46.843Z,5.00
2019-05-03T02:11:16.047Z,6.40
2019-05-03T02:13:45.308Z,5.22
2019-05-03T02:16:14.511Z,5.12
2019-05-03T02:18:43.716Z,4.20
2019-05-03T02:21:12.991Z,6.12
2019-05-03T02:23:42.660Z,5.70
2019-05-03T02:26:12.959Z,4.17
2019-05-03T02:28:42.268Z,7.62
2019-05-03T02:31:13.699Z,6.80
2019-05-03T02:33:43.458Z,6.35
2019-05-03T02:36:13.603Z,5.95
2019-05-03T02:38:44.240Z,5.50
2019-05-03T02:41:13.706Z,5.28
2019-05-03T02:43:47.385Z,5.60
2019-05-03T02:46:36.080Z,6.10
2019-05-03T02:49:16.208Z,5.42
2019-05-03T02:51:46.197Z,5.70
2019-05-03T02:54:15.741Z,4.28
2019-05-03T02:56:46.026Z,6.45
2019-05-03T02:59:15.961Z,4.75
2019-05-03T03:01:46.497Z,4.95
2019-05-03T03:04:16.093Z,4.15
2019-05-03T03:06:45.561Z,4.70
2019-05-03T03:09:16.520Z,9.33
2019-05-03T03:11:46.027Z,8.05
2019-05-03T03:14:16.807Z,7.10
2019-05-03T03:16:49.483Z,4.67
2019-05-03T03:19:21.789Z,5.22
2019-05-03T03:21:51.544Z,4.83
2019-05-03T03:24:20.695Z,5.70
2019-05-03T03:26:50.120Z,6.17
2019-05-03T03:29:20.465Z,6.08
2019-05-03T03:32:17.557Z,6.90
2019-05-03T03:34:55.464Z,6.28
2019-05-03T03:37:20.137Z,5.17
2019-05-03T03:39:49.370Z,4.50
2019-05-03T03:42:19.023Z,4.30
2019-05-03T03:44:48.296Z,4.17
2019-05-03T03:47:17.472Z,4.90
2019-05-03T03:49:46.726Z,3.85
2019-05-03T03:52:16.155Z,5.55
2019-05-03T03:54:45.790Z,4.42
2019-05-03T03:57:16.419Z,5.92
2019-05-03T03:59:45.787Z,6.53
2019-05-03T04:02:15.929Z,5.78
2019-05-03T04:04:45.481Z,5.78
2019-05-03T04:07:15.724Z,5.00
2019-05-03T04:09:45.862Z,4.72
2019-05-03T04:12:16.426Z,4.87
2019-05-03T04:14:47.600Z,5.15
2019-05-03T04:17:21.317Z,6.53
2019-05-03T04:19:55.779Z,4.15
2019-05-03T04:22:25.405Z,4.97
2019-05-03T04:24:55.381Z,4.42
2019-05-03T04:27:27.478Z,5.58
2019-05-03T04:29:55.792Z,6.90
2019-05-03T04:32:28.744Z,5.00
2019-05-03T04:34:56.157Z,5.33
2019-05-03T04:37:26.623Z,4.72
2019-05-03T04:39:56.324Z,6.50
2019-05-03T04:42:25.922Z,5.17
2019-05-03T04:44:56.270Z,6.67
2019-05-03T04:47:26.509Z,7.47
2019-05-03T04:49:56.004Z,5.30
2019-05-03T04:52:26.094Z,7.75
2019-05-03T04:54:57.132Z,5.12
2019-05-03T04:57:40.069Z,6.20
2019-05-03T04:59:57.710Z,5.05
2019-05-03T05:02:26.887Z,7.25
2019-05-03T05:04:56.120Z,5.40
2019-05-03T05:07:26.143Z,6.72
2019-05-03T05:09:56.346Z,5.47
2019-05-03T05:12:25.968Z,9.25
2019-05-03T05:14:56.335Z,5.37
2019-05-03T05:17:28.698Z,5.25
2019-05-03T05:20:02.493Z,6.42
2019-05-03T05:22:35.338Z,5.30
2019-05-03T05:25:07.858Z,4.53
2019-05-03T05:27:57.136Z,4.92
2019-05-03T05:30:26.108Z,4.37
2019-05-03T05:32:55.384Z,6.05
2019-05-03T05:35:24.878Z,6.42
2019-05-03T05:37:54.665Z,5.05
2019-05-03T05:40:24.578Z,5.90
2019-05-03T05:42:54.549Z,6.50
2019-05-03T05:45:24.935Z,3.52
2019-05-03T05:47:55.732Z,9.08
2019-05-03T05:50:29.411Z,4.45
2019-05-03T05:53:00.472Z,8.38
2019-05-03T05:55:34.525Z,7.37
2019-05-03T05:58:09.325Z,11.10
2019-05-03T06:00:56.630Z,5.03
2019-05-03T06:03:25.863Z,9.43
2019-05-03T06:05:56.780Z,5.47
2019-05-03T06:08:44.543Z,8.13
2019-05-03T06:11:20.751Z,16.70
2019-05-03T06:14:06.636Z,8.15
2019-05-03T06:16:37.470Z,9.78
2019-05-03T06:19:11.068Z,15.98
2019-05-03T06:21:41.940Z,14.55
2019-05-03T06:24:14.640Z,9.50
2019-05-03T06:26:45.290Z,7.35
2019-05-03T06:29:14.974Z,7.67
2019-05-03T06:32:05.850Z,11.97
2019-05-03T06:34:35.451Z,12.85
2019-05-03T06:37:06.772Z,15.60
2019-05-03T06:39:36.005Z,13.20
2019-05-03T06:42:05.309Z,7.40
2019-05-03T06:44:35.244Z,7.67
2019-05-03T06:47:08.708Z,5.80
2019-05-03T06:49:39.204Z,10.93
2019-05-03T06:52:06.289Z,6.50
2019-05-03T06:54:37.911Z,7.90
2019-05-03T06:57:09.646Z,7.05
2019-05-03T06:59:46.828Z,8.90
2019-05-03T07:02:25.193Z,9.70
2019-05-03T07:05:05.196Z,7.45
2019-05-03T07:07:45.351Z,12.78
2019-05-03T07:10:16.972Z,7.80
2019-05-03T07:12:59.834Z,4.85
2019-05-03T07:15:29.225Z,10.58
2019-05-03T07:17:59.802Z,5.85
2019-05-03T07:20:30.676Z,8.40
2019-05-03T07:22:59.946Z,9.55
2019-05-03T07:25:29.229Z,10.45
2019-05-03T07:27:58.527Z,8.50
2019-05-03T07:30:27.886Z,10.05
2019-05-03T07:32:58.902Z,8.83
2019-05-03T07:35:28.302Z,9.75
2019-05-03T07:37:59.492Z,11.73
2019-05-03T07:40:29.560Z,10.38
2019-05-03T07:42:58.772Z,8.20
2019-05-03T07:45:27.957Z,7.67
2019-05-03T07:47:57.211Z,6.72
2019-05-03T07:50:26.403Z,10.23
2019-05-03T07:52:55.921Z,11.60
2019-05-03T07:55:45.672Z,11.75
2019-05-03T07:58:28.986Z,8.28
2019-05-03T08:01:06.402Z,8.08
2019-05-03T08:03:30.872Z,11.18
2019-05-03T08:06:00.090Z,8.53
2019-05-03T08:08:29.453Z,9.95
2019-05-03T08:10:58.668Z,8.65
2019-05-03T08:13:27.815Z,9.20
2019-05-03T08:15:57.122Z,14.05
2019-05-03T08:18:26.415Z,11.33
2019-05-03T08:20:55.820Z,9.88
2019-05-03T08:23:29.857Z,11.10
2019-05-03T08:25:57.843Z,12.63
2019-05-03T08:28:27.236Z,14.80
2019-05-03T08:30:58.466Z,11.03
2019-05-03T08:33:29.368Z,11.88
2019-05-03T08:35:58.614Z,14.75
2019-05-03T08:38:27.854Z,12.78
2019-05-03T08:40:58.691Z,20.40
2019-05-03T08:43:27.961Z,11.88
2019-05-03T08:45:58.274Z,14.50
2019-05-03T08:48:28.485Z,14.10
2019-05-03T08:50:57.805Z,16.80
2019-05-03T08:53:28.121Z,13.88
2019-05-03T08:55:57.399Z,13.35
2019-05-03T08:58:26.627Z,14.23
2019-05-03T09:00:55.811Z,14.70
2019-05-03T09:03:25.085Z,10.90
2019-05-03T09:05:56.439Z,11.75
2019-05-03T09:08:25.249Z,12.43
2019-05-03T09:10:59.588Z,15.48
2019-05-03T09:13:30.436Z,12.33
2019-05-03T09:15:59.732Z,11.00
2019-05-03T09:18:28.967Z,14.50
2019-05-03T09:20:58.200Z,11.73
2019-05-03T09:23:27.394Z,11.80
2019-05-03T09:25:56.571Z,17.27
2019-05-03T09:28:28.891Z,13.95
2019-05-03T09:30:57.587Z,13.10
2019-05-03T09:33:28.004Z,10.95
2019-05-03T09:35:57.358Z,15.32
2019-05-03T09:38:26.651Z,13.35
2019-05-03T09:40:55.821Z,12.73
2019-05-03T09:43:25.202Z,12.68
2019-05-03T09:45:55.435Z,13.00
2019-05-03T09:48:25.455Z,13.50
2019-05-03T09:50:55.658Z,16.77
2019-05-03T09:53:26.779Z,15.95
2019-05-03T09:55:56.153Z,11.83
2019-05-03T09:58:26.348Z,11.60
2019-05-03T10:00:55.810Z,17.02
2019-05-03T10:03:25.050Z,14.80
2019-05-03T10:05:55.408Z,18.10
2019-05-03T10:08:25.987Z,19.50
2019-05-03T10:11:05.311Z,11.25
2019-05-03T10:13:35.923Z,13.45
2019-05-03T10:16:06.180Z,16.85
2019-05-03T10:18:35.761Z,12.63
2019-05-03T10:21:05.603Z,16.40
2019-05-03T10:23:37.676Z,16.82
2019-05-03T10:26:06.901Z,20.08
2019-05-03T10:28:37.082Z,15.70
2019-05-03T10:31:07.781Z,15.83
2019-05-03T10:33:41.856Z,12.90
2019-05-03T10:36:10.992Z,11.08
2019-05-03T10:38:40.232Z,13.70
2019-05-03T10:41:09.619Z,13.08
2019-05-03T10:43:38.851Z,11.57
2019-05-03T10:46:08.226Z,15.18
2019-05-03T10:48:37.573Z,13.43
2019-05-03T10:51:06.950Z,10.68
2019-05-03T10:53:38.003Z,11.15
2019-05-03T10:56:24.548Z,12.63
2019-05-03T10:58:54.968Z,10.50
2019-05-03T11:01:29.140Z,12.53
2019-05-03T11:03:58.455Z,14.27
2019-05-03T11:06:27.717Z,11.70
2019-05-03T11:08:59.521Z,12.53
2019-05-03T11:11:29.007Z,11.45
2019-05-03T11:13:58.348Z,10.65
2019-05-03T11:16:28.860Z,10.63
2019-05-03T11:18:58.198Z,8.35
2019-05-03T11:21:30.879Z,11.85
2019-05-03T11:23:58.417Z,8.83
2019-05-03T11:26:27.620Z,9.13
2019-05-03T11:29:00.518Z,9.88
2019-05-03T11:31:29.445Z,9.88
2019-05-03T11:34:00.500Z,8.65
2019-05-03T11:36:46.658Z,10.23
2019-05-03T11:39:15.940Z,9.48
2019-05-03T11:41:46.876Z,10.58
2019-05-03T11:44:35.867Z,9.35
2019-05-03T11:47:06.109Z,9.98
2019-05-03T11:49:36.445Z,12.35
2019-05-03T11:52:06.517Z,7.28
2019-05-03T11:54:36.139Z,8.38
2019-05-03T11:57:10.062Z,8.95
2019-05-03T11:59:39.315Z,9.78
2019-05-03T12:02:26.018Z,7.80
2019-05-03T12:04:59.743Z,10.50
2019-05-03T12:07:39.487Z,9.38
2019-05-03T12:10:16.779Z,13.03
2019-05-03T12:12:49.248Z,10.18
2019-05-03T12:15:19.199Z,12.40
2019-05-03T12:17:58.812Z,8.65
2019-05-03T12:20:28.840Z,7.25
2019-05-03T12:23:05.449Z,10.70
2019-05-03T12:25:33.507Z,7.75
2019-05-03T12:28:05.917Z,11.10
2019-05-03T12:30:35.506Z,10.48
2019-05-03T12:33:05.923Z,8.10
2019-05-03T12:35:36.594Z,8.18
2019-05-03T12:38:05.850Z,11.50
2019-05-03T12:40:35.235Z,11.18
2019-05-03T12:43:06.111Z,7.83
2019-05-03T12:45:35.683Z,11.97
2019-05-03T12:48:06.319Z,9.60
2019-05-03T12:50:35.538Z,8.93
2019-05-03T12:53:05.100Z,10.00
2019-05-03T12:55:35.585Z,9.50
2019-05-03T12:58:06.608Z,8.08
2019-05-03T13:00:46.711Z,7.33
2019-05-03T13:03:18.706Z,9.03
2019-05-03T13:05:47.899Z,12.28
2019-05-03T13:08:36.219Z,8.15
2019-05-03T13:11:05.845Z,8.50
2019-05-03T13:13:36.018Z,9.90
2019-05-03T13:16:05.671Z,6.78
2019-05-03T13:18:35.530Z,12.18
2019-05-03T13:21:05.986Z,10.13
2019-05-03T13:23:36.517Z,11.73
2019-05-03T13:26:06.995Z,8.10
2019-05-03T13:28:42.575Z,14.53
2019-05-03T13:31:12.101Z,11.83
2019-05-03T13:33:41.339Z,12.00
2019-05-03T13:36:10.809Z,8.03
2019-05-03T13:38:40.019Z,8.35
2019-05-03T13:41:09.260Z,19.52
2019-05-03T13:43:38.524Z,14.25
2019-05-03T13:46:08.337Z,13.95
2019-05-03T13:48:45.430Z,13.58
2019-05-03T13:51:09.641Z,12.98
2019-05-03T13:53:38.905Z,12.63
2019-05-03T13:56:08.181Z,10.13
2019-05-03T13:58:37.471Z,9.35
2019-05-03T14:01:06.817Z,16.42
2019-05-03T14:03:36.020Z,14.03
2019-05-03T14:06:08.396Z,11.80
2019-05-03T14:08:36.421Z,10.58
2019-05-03T14:11:05.824Z,13.62
2019-05-03T14:13:35.521Z,10.43
2019-05-03T14:16:05.853Z,11.57
2019-05-03T14:18:35.608Z,11.90
2019-05-03T14:21:12.616Z,10.43
2019-05-03T14:23:59.466Z,9.90
2019-05-03T14:26:28.887Z,16.10
2019-05-03T14:28:58.309Z,11.28
2019-05-03T14:31:27.543Z,8.68
2019-05-03T14:33:56.737Z,12.90
2019-05-03T14:36:25.963Z,15.13
2019-05-03T14:38:55.329Z,14.10
2019-05-03T14:41:25.585Z,11.65
2019-05-03T14:43:56.859Z,16.50
2019-05-03T14:46:32.552Z,16.02
2019-05-03T14:48:58.049Z,19.07
2019-05-03T14:51:27.335Z,17.85
2019-05-03T14:53:57.239Z,15.00
2019-05-03T14:56:28.225Z,18.27
2019-05-03T14:59:15.577Z,13.22
2019-05-03T15:01:46.470Z,12.03
2019-05-03T15:04:15.821Z,14.15
2019-05-03T15:06:46.335Z,17.50
2019-05-03T15:09:18.967Z,8.85
2019-05-03T15:11:47.207Z,13.32
2019-05-03T15:14:16.397Z,18.60
2019-05-03T15:16:45.680Z,14.38
2019-05-03T15:19:15.849Z,10.13
2019-05-03T15:21:45.309Z,11.33
2019-05-03T15:24:14.662Z,10.05
2019-05-03T15:26:45.447Z,10.43
2019-05-03T15:29:15.538Z,9.90
2019-05-03T15:31:44.915Z,7.28
2019-05-03T15:34:15.251Z,9.80
2019-05-03T15:36:45.118Z,8.13
2019-05-03T15:39:15.443Z,7.90
2019-05-03T15:41:45.580Z,7.42
2019-05-03T15:44:16.397Z,13.13
2019-05-03T15:46:54.537Z,8.68
2019-05-03T15:49:27.379Z,8.50
2019-05-03T15:51:56.181Z,9.93
2019-05-03T15:54:25.459Z,8.45
2019-05-03T15:56:54.600Z,8.75
2019-05-03T15:59:24.404Z,8.18
2019-05-03T16:01:55.341Z,8.48
2019-05-03T16:04:26.491Z,7.95
2019-05-03T16:06:55.681Z,8.80
2019-05-03T16:12:05.079Z,7.65
2019-05-03T16:14:35.681Z,7.83
2019-05-03T16:17:04.920Z,7.22
2019-05-03T16:19:35.456Z,11.30
2019-05-03T16:22:04.938Z,8.10
2019-05-03T16:24:35.528Z,9.35
2019-05-03T16:27:18.377Z,7.37
2019-05-03T16:29:47.628Z,17.20
2019-05-03T16:32:16.792Z,8.78
2019-05-03T16:34:45.949Z,8.23
2019-05-03T16:37:15.173Z,9.80
2019-05-03T16:39:45.342Z,12.07
2019-05-03T16:42:15.490Z,11.30
2019-05-03T16:44:44.892Z,7.00
2019-05-03T16:47:15.669Z,12.03
2019-05-03T16:49:45.147Z,9.13
2019-05-03T16:52:14.683Z,7.33
2019-05-03T16:54:46.138Z,13.93
2019-05-03T16:57:17.424Z,9.23
2019-05-03T16:59:46.422Z,10.63
2019-05-03T17:02:17.485Z,8.00
2019-05-03T17:04:48.215Z,8.53
2019-05-03T17:07:19.026Z,8.33
2019-05-03T17:09:49.847Z,4.80
2019-05-03T17:12:37.951Z,9.23
2019-05-03T17:15:09.144Z,7.97
2019-05-03T17:17:38.703Z,7.30
2019-05-03T17:20:08.999Z,8.10
2019-05-03T17:22:39.039Z,7.75
2019-05-03T17:25:09.499Z,8.83
2019-05-03T17:27:39.899Z,8.05
2019-05-03T17:30:10.931Z,7.22
2019-05-03T17:32:40.296Z,10.20
2019-05-03T17:35:09.470Z,10.90
2019-05-03T17:37:38.773Z,13.13
2019-05-03T17:40:15.616Z,10.63
2019-05-03T17:42:55.742Z,7.62
2019-05-03T17:45:32.535Z,6.80
2019-05-03T17:48:01.723Z,7.87
2019-05-03T17:50:31.007Z,10.40
2019-05-03T17:53:10.847Z,7.08
2019-05-03T17:55:41.750Z,8.00
2019-05-03T17:58:18.528Z,8.95
2019-05-03T18:00:49.376Z,6.45
2019-05-03T18:03:19.367Z,9.03
2019-05-03T18:05:50.272Z,5.70
2019-05-03T18:08:38.816Z,5.78
2019-05-03T18:11:09.715Z,9.80
2019-05-03T18:13:38.929Z,7.87
2019-05-03T18:16:08.099Z,7.70
2019-05-03T18:18:37.281Z,5.97
2019-05-03T18:21:06.444Z,10.55
2019-05-03T18:23:35.615Z,6.95
2019-05-03T18:26:05.292Z,7.42
2019-05-03T18:28:35.632Z,5.62
2019-05-03T18:31:05.754Z,5.47
2019-05-03T18:33:35.976Z,8.73
2019-05-03T18:36:06.254Z,6.03
2019-05-03T18:38:37.075Z,5.72
2019-05-03T18:41:06.925Z,4.92
2019-05-03T18:43:37.736Z,5.05
2019-05-03T18:46:23.993Z,6.53
2019-05-03T18:48:55.037Z,8.15
2019-05-03T18:51:25.205Z,4.55
2019-05-03T18:53:54.556Z,6.45
2019-05-03T18:56:25.215Z,7.03
2019-05-03T18:58:54.516Z,5.78
2019-05-03T19:01:25.307Z,5.30
2019-05-03T19:03:57.472Z,5.42
2019-05-03T19:06:26.677Z,6.05
2019-05-03T19:09:09.718Z,6.65
2019-05-03T19:11:44.139Z,6.45
2019-05-03T19:14:21.163Z,6.45
2019-05-03T19:16:55.273Z,5.65
2019-05-03T19:19:38.408Z,4.40
2019-05-03T19:22:07.591Z,5.28
2019-05-03T19:24:36.784Z,7.58
2019-05-03T19:27:07.453Z,4.33
2019-05-03T19:29:36.748Z,6.15
2019-05-03T19:32:06.134Z,5.30
2019-05-03T19:34:47.759Z,5.62
2019-05-03T19:37:07.280Z,4.83
2019-05-03T19:39:36.492Z,5.72
2019-05-03T19:42:05.836Z,7.12
2019-05-03T19:44:36.877Z,5.62
2019-05-03T19:47:06.726Z,4.62
2019-05-03T19:49:37.341Z,4.67
2019-05-03T19:52:06.558Z,7.58
2019-05-03T19:54:36.525Z,4.90
2019-05-03T19:57:05.914Z,5.60
2019-05-03T19:59:51.749Z,6.45
2019-05-03T20:02:24.428Z,3.87
2019-05-03T20:05:11.598Z,4.75
2019-05-03T20:07:45.277Z,7.22
2019-05-03T20:10:14.985Z,4.75
2019-05-03T20:12:45.373Z,5.50
2019-05-03T20:15:14.603Z,4.85
2019-05-03T20:17:54.694Z,5.67
2019-05-03T20:20:15.453Z,5.58
2019-05-03T20:22:45.455Z,7.22
2019-05-03T20:25:15.749Z,5.12
2019-05-03T20:27:45.015Z,6.50
2019-05-03T20:30:14.995Z,5.62
2019-05-03T20:32:45.080Z,4.55
2019-05-03T20:35:18.761Z,6.47
2019-05-03T20:37:45.282Z,4.50
2019-05-03T20:40:15.618Z,4.45
2019-05-03T20:43:04.721Z,4.97
2019-05-03T20:45:35.578Z,5.40
2019-05-03T20:48:08.219Z,6.22
2019-05-03T20:50:37.518Z,4.40
2019-05-03T20:53:06.908Z,4.62
2019-05-03T20:55:36.249Z,5.60
2019-05-03T20:58:08.240Z,7.10
2019-05-03T21:00:36.331Z,4.85
2019-05-03T21:03:05.506Z,4.40
2019-05-03T21:05:37.263Z,5.53
2019-05-03T21:08:05.756Z,4.25
2019-05-03T21:10:34.985Z,5.00
2019-05-03T21:13:05.757Z,6.25
2019-05-03T21:15:39.564Z,5.42
2019-05-03T21:18:10.362Z,5.50
2019-05-03T21:20:57.730Z,5.10
2019-05-03T21:23:31.221Z,6.22
2019-05-03T21:26:12.459Z,4.40
2019-05-03T21:28:35.904Z,5.62
2019-05-03T21:31:05.542Z,4.80
2019-05-03T21:33:35.524Z,5.58
2019-05-03T21:36:04.868Z,4.78
2019-05-03T21:38:35.439Z,5.37
2019-05-03T21:41:06.049Z,5.15
2019-05-03T21:43:35.328Z,4.37
2019-05-03T21:46:06.300Z,5.03
2019-05-03T21:48:49.188Z,4.90
2019-05-03T21:51:18.600Z,5.50
2019-05-03T21:53:47.853Z,5.08
2019-05-03T21:56:17.027Z,4.22
2019-05-03T21:58:46.747Z,4.35
2019-05-03T22:01:16.078Z,5.42
2019-05-03T22:03:45.455Z,6.10
2019-05-03T22:06:16.872Z,5.70
2019-05-03T22:08:45.599Z,4.90
2019-05-03T22:11:14.980Z,5.55
2019-05-03T22:13:45.950Z,4.30
2019-05-03T22:16:25.848Z,5.83
2019-05-03T22:18:55.063Z,4.95
2019-05-03T22:21:36.879Z,4.80
2019-05-03T22:24:08.465Z,6.00
2019-05-03T22:26:54.654Z,4.40
2019-05-03T22:29:25.414Z,5.55
2019-05-03T22:31:55.089Z,7.28
2019-05-03T22:34:25.784Z,5.75
2019-05-03T22:36:55.253Z,4.90
2019-05-03T22:39:25.056Z,5.87
2019-05-03T22:41:54.496Z,5.40
2019-05-03T22:44:25.334Z,5.83
2019-05-03T22:46:55.498Z,5.00
2019-05-03T22:49:25.953Z,4.95
2019-05-03T22:51:56.508Z,5.28
2019-05-03T22:54:25.739Z,5.70
2019-05-03T22:56:55.566Z,5.42
2019-05-03T22:59:25.362Z,5.20
2019-05-03T23:01:54.908Z,4.80
2019-05-03T23:04:25.231Z,6.58
2019-05-03T23:06:55.467Z,4.58
2019-05-03T23:09:25.167Z,5.47
2019-05-03T23:11:55.312Z,5.30
2019-05-03T23:14:25.683Z,5.03
2019-05-03T23:16:55.020Z,4.60
2019-05-03T23:19:24.205Z,4.80
2019-05-03T23:21:55.005Z,5.47
2019-05-03T23:24:24.681Z,4.62
2019-05-03T23:26:54.087Z,5.00
2019-05-03T23:29:23.263Z,5.95
2019-05-03T23:31:52.486Z,4.65
2019-05-03T23:34:21.664Z,4.47
2019-05-03T23:36:50.857Z,5.10
2019-05-03T23:39:21.071Z,4.95
2019-05-03T23:41:50.251Z,4.80
2019-05-03T23:44:19.426Z,5.97
2019-05-03T23:47:02.479Z,5.30
2019-05-03T23:49:31.651Z,5.25
2019-05-03T23:52:08.648Z,4.75
2019-05-03T23:54:37.864Z,4.75
2019-05-03T23:57:07.039Z,5.10
2019-05-03T23:59:36.230Z,4.78
